sensor_id;sensor_type;location;lat;lon;timestamp;pressure;altitude;pressure_sealevel;temperature;humidity
84904;BME280;75168;52.096;5.214;2024-01-11T00:00:19;103096.56;;;18.42;35.52
84904;BME280;75168;52.096;5.214;2024-01-11T00:02:44;103099.22;;;18.42;35.85
84904;BME280;75168;52.096;5.214;2024-01-11T00:05:10;103097.41;;;18.41;35.95
84904;BME280;75168;52.096;5.214;2024-01-11T00:07:35;103102.72;;;18.41;35.96
84904;BME280;75168;52.096;5.214;2024-01-11T00:10:02;103098.34;;;18.41;35.85
84904;BME280;75168;52.096;5.214;2024-01-11T00:12:29;103104.50;;;18.42;35.56
84904;BME280;75168;52.096;5.214;2024-01-11T00:14:54;103108.03;;;18.42;35.64
84904;BME280;75168;52.096;5.214;2024-01-11T00:17:20;103096.56;;;18.42;35.79
84904;BME280;75168;52.096;5.214;2024-01-11T00:19:45;103098.34;;;18.41;35.62
84904;BME280;75168;52.096;5.214;2024-01-11T00:22:10;103098.34;;;18.41;35.76
84904;BME280;75168;52.096;5.214;2024-01-11T00:24:36;103103.63;;;18.41;35.62
84904;BME280;75168;52.096;5.214;2024-01-11T00:27:01;103106.25;;;18.41;35.74
84904;BME280;75168;52.096;5.214;2024-01-11T00:29:27;103104.47;;;18.40;35.74
84904;BME280;75168;52.096;5.214;2024-01-11T00:31:53;103106.25;;;18.41;35.89
84904;BME280;75168;52.096;5.214;2024-01-11T00:34:19;103109.75;;;18.40;35.81
84904;BME280;75168;52.096;5.214;2024-01-11T00:36:44;103113.28;;;18.41;35.55
84904;BME280;75168;52.096;5.214;2024-01-11T00:39:10;103113.28;;;18.41;35.76
84904;BME280;75168;52.096;5.214;2024-01-11T00:41:37;103107.13;;;18.40;35.58
84904;BME280;75168;52.096;5.214;2024-01-11T00:44:02;103107.13;;;18.40;35.61
84904;BME280;75168;52.096;5.214;2024-01-11T00:46:28;103105.34;;;18.41;35.65
84904;BME280;75168;52.096;5.214;2024-01-11T00:48:53;103102.72;;;18.41;36.01
84904;BME280;75168;52.096;5.214;2024-01-11T00:51:18;103097.38;;;18.39;35.34
84904;BME280;75168;52.096;5.214;2024-01-11T00:53:44;103096.53;;;18.40;35.54
84904;BME280;75168;52.096;5.214;2024-01-11T00:56:18;103097.38;;;18.39;35.69
84904;BME280;75168;52.096;5.214;2024-01-11T00:58:44;103105.31;;;18.39;35.69
84904;BME280;75168;52.096;5.214;2024-01-11T01:01:10;103104.44;;;18.39;35.54
84904;BME280;75168;52.096;5.214;2024-01-11T01:03:35;103105.31;;;18.39;35.79
84904;BME280;75168;52.096;5.214;2024-01-11T01:06:01;103113.25;;;18.39;35.77
84904;BME280;75168;52.096;5.214;2024-01-11T01:08:28;103113.25;;;18.39;35.59
84904;BME280;75168;52.096;5.214;2024-01-11T01:10:53;103110.59;;;18.39;35.55
84904;BME280;75168;52.096;5.214;2024-01-11T01:13:18;103107.97;;;18.39;35.61
84904;BME280;75168;52.096;5.214;2024-01-11T01:15:44;103111.47;;;18.38;35.66
84904;BME280;75168;52.096;5.214;2024-01-11T01:18:09;103114.16;;;18.40;35.83
84904;BME280;75168;52.096;5.214;2024-01-11T01:20:35;103107.97;;;18.39;35.77
84904;BME280;75168;52.096;5.214;2024-01-11T01:23:01;103108.88;;;18.40;35.79
84904;BME280;75168;52.096;5.214;2024-01-11T01:25:26;103113.25;;;18.39;35.59
84904;BME280;75168;52.096;5.214;2024-01-11T01:27:52;103111.47;;;18.38;35.82
84904;BME280;75168;52.096;5.214;2024-01-11T01:30:17;103122.06;;;18.38;35.68
84904;BME280;75168;52.096;5.214;2024-01-11T01:32:43;103121.19;;;18.38;35.66
84904;BME280;75168;52.096;5.214;2024-01-11T01:35:08;103127.34;;;18.38;35.60
84904;BME280;75168;52.096;5.214;2024-01-11T01:37:33;103133.47;;;18.37;35.50
84904;BME280;75168;52.096;5.214;2024-01-11T01:39:59;103129.97;;;18.38;35.41
84904;BME280;75168;52.096;5.214;2024-01-11T01:42:24;103136.13;;;18.37;35.74
84904;BME280;75168;52.096;5.214;2024-01-11T01:44:50;103132.63;;;18.38;35.69
84904;BME280;75168;52.096;5.214;2024-01-11T01:47:16;103137.91;;;18.38;35.64
84904;BME280;75168;52.096;5.214;2024-01-11T01:49:43;103129.09;;;18.38;35.43
84904;BME280;75168;52.096;5.214;2024-01-11T01:52:10;103129.97;;;18.38;35.63
84904;BME280;75168;52.096;5.214;2024-01-11T01:54:36;103122.91;;;18.37;35.56
84904;BME280;75168;52.096;5.214;2024-01-11T01:57:02;103122.06;;;18.38;35.40
84904;BME280;75168;52.096;5.214;2024-01-11T01:59:29;103125.53;;;18.37;35.66
84904;BME280;75168;52.096;5.214;2024-01-11T02:01:55;103122.91;;;18.37;35.44
84904;BME280;75168;52.096;5.214;2024-01-11T02:04:21;103131.75;;;18.38;35.40
84904;BME280;75168;52.096;5.214;2024-01-11T02:06:49;103130.84;;;18.37;35.42
84904;BME280;75168;52.096;5.214;2024-01-11T02:09:16;103139.66;;;18.38;35.74
84904;BME280;75168;52.096;5.214;2024-01-11T02:11:44;103139.66;;;18.38;35.58
84904;BME280;75168;52.096;5.214;2024-01-11T02:14:10;103144.03;;;18.37;35.69
84904;BME280;75168;52.096;5.214;2024-01-11T02:16:36;103143.16;;;18.37;35.47
84904;BME280;75168;52.096;5.214;2024-01-11T02:19:03;103143.19;;;18.38;35.43
84904;BME280;75168;52.096;5.214;2024-01-11T02:21:30;103144.03;;;18.37;35.44
84904;BME280;75168;52.096;5.214;2024-01-11T02:24:04;103148.44;;;18.37;35.53
84904;BME280;75168;52.096;5.214;2024-01-11T02:26:30;103153.72;;;18.37;35.62
84904;BME280;75168;52.096;5.214;2024-01-11T02:28:55;103145.81;;;18.37;35.58
84904;BME280;75168;52.096;5.214;2024-01-11T02:31:21;103137.88;;;18.37;35.34
84904;BME280;75168;52.096;5.214;2024-01-11T02:33:47;103140.53;;;18.37;35.50
84904;BME280;75168;52.096;5.214;2024-01-11T02:36:13;103142.28;;;18.36;35.43
84904;BME280;75168;52.096;5.214;2024-01-11T02:38:39;103146.69;;;18.37;35.60
84904;BME280;75168;52.096;5.214;2024-01-11T02:41:06;103143.16;;;18.37;35.53
84904;BME280;75168;52.096;5.214;2024-01-11T02:43:32;103137.84;;;18.35;35.40
84904;BME280;75168;52.096;5.214;2024-01-11T02:45:58;103138.72;;;18.36;35.24
84904;BME280;75168;52.096;5.214;2024-01-11T02:48:30;103139.63;;;18.36;35.70
84904;BME280;75168;52.096;5.214;2024-01-11T02:50:57;103138.72;;;18.36;35.38
84904;BME280;75168;52.096;5.214;2024-01-11T02:53:22;103137.84;;;18.35;35.45
84904;BME280;75168;52.096;5.214;2024-01-11T02:55:51;103136.09;;;18.36;35.24
84904;BME280;75168;52.096;5.214;2024-01-11T02:58:17;103145.78;;;18.35;35.31
84904;BME280;75168;52.096;5.214;2024-01-11T03:00:42;103143.13;;;18.35;35.31
84904;BME280;75168;52.096;5.214;2024-01-11T03:03:08;103146.66;;;18.34;35.56
84904;BME280;75168;52.096;5.214;2024-01-11T03:05:33;103145.75;;;18.34;35.46
84904;BME280;75168;52.096;5.214;2024-01-11T03:07:58;103144.91;;;18.35;35.49
84904;BME280;75168;52.096;5.214;2024-01-11T03:10:24;103150.16;;;18.33;35.42
84904;BME280;75168;52.096;5.214;2024-01-11T03:12:50;103141.38;;;18.34;35.17
84904;BME280;75168;52.096;5.214;2024-01-11T03:15:15;103137.84;;;18.35;35.36
84904;BME280;75168;52.096;5.214;2024-01-11T03:17:41;103126.38;;;18.33;35.53
84904;BME280;75168;52.096;5.214;2024-01-11T03:20:07;103124.59;;;18.34;35.51
84904;BME280;75168;52.096;5.214;2024-01-11T03:22:33;103119.34;;;18.35;35.47
84904;BME280;75168;52.096;5.214;2024-01-11T03:24:59;103128.16;;;18.34;35.27
84904;BME280;75168;52.096;5.214;2024-01-11T03:27:24;103130.78;;;18.33;35.37
84904;BME280;75168;52.096;5.214;2024-01-11T03:29:49;103121.97;;;18.34;35.25
84904;BME280;75168;52.096;5.214;2024-01-11T03:32:15;103119.31;;;18.34;35.09
84904;BME280;75168;52.096;5.214;2024-01-11T03:34:40;103127.22;;;18.32;35.49
84904;BME280;75168;52.096;5.214;2024-01-11T03:37:06;103127.22;;;18.32;35.17
84904;BME280;75168;52.096;5.214;2024-01-11T03:39:32;103136.06;;;18.33;35.25
84904;BME280;75168;52.096;5.214;2024-01-11T03:41:57;103140.47;;;18.34;35.34
84904;BME280;75168;52.096;5.214;2024-01-11T03:44:23;103134.28;;;18.33;35.19
84904;BME280;75168;52.096;5.214;2024-01-11T03:46:48;103133.38;;;18.31;35.30
84904;BME280;75168;52.096;5.214;2024-01-11T03:49:13;103126.34;;;18.32;35.05
84904;BME280;75168;52.096;5.214;2024-01-11T03:51:39;103132.50;;;18.32;35.24
84904;BME280;75168;52.096;5.214;2024-01-11T03:54:05;103136.06;;;18.33;35.50
84904;BME280;75168;52.096;5.214;2024-01-11T03:56:30;103144.00;;;18.33;35.30
84904;BME280;75168;52.096;5.214;2024-01-11T03:58:56;103156.28;;;18.32;35.06
84904;BME280;75168;52.096;5.214;2024-01-11T04:01:21;103158.91;;;18.32;35.42
84904;BME280;75168;52.096;5.214;2024-01-11T04:03:47;103164.22;;;18.32;35.52
84904;BME280;75168;52.096;5.214;2024-01-11T04:06:20;103164.22;;;18.32;35.28
84904;BME280;75168;52.096;5.214;2024-01-11T04:08:46;103165.97;;;18.32;35.04
84904;BME280;75168;52.096;5.214;2024-01-11T04:11:12;103170.38;;;18.31;35.17
84904;BME280;75168;52.096;5.214;2024-01-11T04:13:37;103163.31;;;18.32;35.19
84904;BME280;75168;52.096;5.214;2024-01-11T04:16:07;103163.31;;;18.32;35.23
84904;BME280;75168;52.096;5.214;2024-01-11T04:18:33;103170.38;;;18.31;34.94
84904;BME280;75168;52.096;5.214;2024-01-11T04:20:59;103178.31;;;18.31;34.98
84904;BME280;75168;52.096;5.214;2024-01-11T04:23:24;103178.31;;;18.31;35.21
84904;BME280;75168;52.096;5.214;2024-01-11T04:25:50;103166.84;;;18.31;35.30
84904;BME280;75168;52.096;5.214;2024-01-11T04:28:18;103154.53;;;18.31;35.02
84904;BME280;75168;52.096;5.214;2024-01-11T04:30:44;103150.09;;;18.30;35.10
84904;BME280;75168;52.096;5.214;2024-01-11T04:33:09;103155.38;;;18.30;35.13
84904;BME280;75168;52.096;5.214;2024-01-11T04:35:36;103153.63;;;18.31;35.02
84904;BME280;75168;52.096;5.214;2024-01-11T04:38:01;103154.50;;;18.30;35.26
84904;BME280;75168;52.096;5.214;2024-01-11T04:40:26;103155.38;;;18.30;35.20
84904;BME280;75168;52.096;5.214;2024-01-11T04:42:52;103168.59;;;18.30;34.97
84904;BME280;75168;52.096;5.214;2024-01-11T04:45:17;103179.16;;;18.30;34.97
84904;BME280;75168;52.096;5.214;2024-01-11T04:47:42;103174.78;;;18.31;35.11
84904;BME280;75168;52.096;5.214;2024-01-11T04:50:08;103174.75;;;18.29;35.11
84904;BME280;75168;52.096;5.214;2024-01-11T04:52:34;103181.78;;;18.30;35.06
84904;BME280;75168;52.096;5.214;2024-01-11T04:54:59;103186.19;;;18.30;34.89
84904;BME280;75168;52.096;5.214;2024-01-11T04:57:24;103186.19;;;18.30;35.09
84904;BME280;75168;52.096;5.214;2024-01-11T04:59:50;103195.88;;;18.29;35.30
84904;BME280;75168;52.096;5.214;2024-01-11T05:02:15;103188.81;;;18.28;34.72
84904;BME280;75168;52.096;5.214;2024-01-11T05:04:40;103195.00;;;18.30;34.90
84904;BME280;75168;52.096;5.214;2024-01-11T05:07:06;103211.72;;;18.29;35.07
84904;BME280;75168;52.096;5.214;2024-01-11T05:09:31;103210.81;;;18.29;34.84
84904;BME280;75168;52.096;5.214;2024-01-11T05:11:57;103202.00;;;18.28;34.93
84904;BME280;75168;52.096;5.214;2024-01-11T05:14:22;103205.53;;;18.29;35.04
84904;BME280;75168;52.096;5.214;2024-01-11T05:16:47;103202.00;;;18.28;34.99
84904;BME280;75168;52.096;5.214;2024-01-11T05:19:13;103203.78;;;18.27;34.87
84904;BME280;75168;52.096;5.214;2024-01-11T05:21:38;103199.38;;;18.28;34.93
84904;BME280;75168;52.096;5.214;2024-01-11T05:24:04;103201.13;;;18.27;34.71
84904;BME280;75168;52.096;5.214;2024-01-11T05:26:29;103202.00;;;18.28;34.95
84904;BME280;75168;52.096;5.214;2024-01-11T05:28:54;103204.66;;;18.28;34.77
84904;BME280;75168;52.096;5.214;2024-01-11T05:31:20;103198.50;;;18.27;35.16
84904;BME280;75168;52.096;5.214;2024-01-11T05:33:45;103185.28;;;18.27;34.77
84904;BME280;75168;52.096;5.214;2024-01-11T05:36:11;103186.13;;;18.26;34.91
84904;BME280;75168;52.096;5.214;2024-01-11T05:38:38;103189.69;;;18.27;34.97
84904;BME280;75168;52.096;5.214;2024-01-11T05:41:04;103187.03;;;18.27;34.79
84904;BME280;75168;52.096;5.214;2024-01-11T05:43:29;103197.59;;;18.27;34.62
84904;BME280;75168;52.096;5.214;2024-01-11T05:45:54;103207.25;;;18.26;34.84
84904;BME280;75168;52.096;5.214;2024-01-11T05:48:20;103215.19;;;18.26;34.94
84904;BME280;75168;52.096;5.214;2024-01-11T05:50:45;103218.75;;;18.27;34.69
84904;BME280;75168;52.096;5.214;2024-01-11T05:53:11;103223.13;;;18.26;34.80
84904;BME280;75168;52.096;5.214;2024-01-11T05:55:37;103224.03;;;18.27;34.81
84904;BME280;75168;52.096;5.214;2024-01-11T05:58:03;103220.47;;;18.26;34.94
84904;BME280;75168;52.096;5.214;2024-01-11T06:00:28;103223.13;;;18.26;34.73
84904;BME280;75168;52.096;5.214;2024-01-11T06:02:54;103227.53;;;18.26;34.95
84904;BME280;75168;52.096;5.214;2024-01-11T06:05:19;103220.47;;;18.26;34.91
84904;BME280;75168;52.096;5.214;2024-01-11T06:07:44;103221.34;;;18.25;34.77
84904;BME280;75168;52.096;5.214;2024-01-11T06:10:10;103219.59;;;18.26;34.83
84904;BME280;75168;52.096;5.214;2024-01-11T06:12:36;103223.09;;;18.25;34.66
84904;BME280;75168;52.096;5.214;2024-01-11T06:15:01;103219.59;;;18.26;34.87
84904;BME280;75168;52.096;5.214;2024-01-11T06:17:27;103211.66;;;18.26;34.79
84904;BME280;75168;52.096;5.214;2024-01-11T06:19:53;103204.59;;;18.25;34.87
84904;BME280;75168;52.096;5.214;2024-01-11T06:22:18;103212.50;;;18.25;34.46
84904;BME280;75168;52.096;5.214;2024-01-11T06:24:44;103217.81;;;18.25;34.57
84904;BME280;75168;52.096;5.214;2024-01-11T06:27:09;103216.91;;;18.24;34.74
84904;BME280;75168;52.096;5.214;2024-01-11T06:29:35;103220.44;;;18.25;34.44
84904;BME280;75168;52.096;5.214;2024-01-11T06:32:00;103224.84;;;18.24;34.64
84904;BME280;75168;52.096;5.214;2024-01-11T06:34:25;103241.56;;;18.25;34.84
84904;BME280;75168;52.096;5.214;2024-01-11T06:36:51;103245.97;;;18.24;34.87
84904;BME280;75168;52.096;5.214;2024-01-11T06:39:16;103245.97;;;18.24;34.53
84904;BME280;75168;52.096;5.214;2024-01-11T06:41:42;103247.75;;;18.24;34.65
84904;BME280;75168;52.096;5.214;2024-01-11T06:44:08;103243.31;;;18.23;34.72
84904;BME280;75168;52.096;5.214;2024-01-11T06:46:34;103242.41;;;18.22;34.48
84904;BME280;75168;52.096;5.214;2024-01-11T06:49:01;103242.47;;;18.24;34.53
84904;BME280;75168;52.096;5.214;2024-01-11T06:51:26;103259.16;;;18.23;34.60
84904;BME280;75168;52.096;5.214;2024-01-11T06:53:52;103273.25;;;18.23;34.74
84904;BME280;75168;52.096;5.214;2024-01-11T06:56:19;103286.44;;;18.22;34.75
84904;BME280;75168;52.096;5.214;2024-01-11T06:58:45;103283.81;;;18.22;34.52
84904;BME280;75168;52.096;5.214;2024-01-11T07:01:11;103286.44;;;18.22;34.44
84904;BME280;75168;52.096;5.214;2024-01-11T07:03:37;103280.28;;;18.23;34.46
84904;BME280;75168;52.096;5.214;2024-01-11T07:06:02;103274.13;;;18.22;34.96
84904;BME280;75168;52.096;5.214;2024-01-11T07:08:29;103275.00;;;18.23;34.67
84904;BME280;75168;52.096;5.214;2024-01-11T07:10:54;103274.13;;;18.22;34.39
84904;BME280;75168;52.096;5.214;2024-01-11T07:13:20;103264.41;;;18.21;34.47
84904;BME280;75168;52.096;5.214;2024-01-11T07:15:45;103274.13;;;18.22;34.40
84904;BME280;75168;52.096;5.214;2024-01-11T07:18:10;103286.44;;;18.22;34.74
84904;BME280;75168;52.096;5.214;2024-01-11T07:20:36;103286.44;;;18.22;34.44
84904;BME280;75168;52.096;5.214;2024-01-11T07:23:01;103278.53;;;18.22;34.67
84904;BME280;75168;52.096;5.214;2024-01-11T07:25:27;103272.31;;;18.21;34.58
84904;BME280;75168;52.096;5.214;2024-01-11T07:27:52;103276.75;;;18.22;34.69
84904;BME280;75168;52.096;5.214;2024-01-11T07:30:18;103282.00;;;18.21;34.40
84904;BME280;75168;52.096;5.214;2024-01-11T07:32:46;103294.38;;;18.22;34.39
84904;BME280;75168;52.096;5.214;2024-01-11T07:35:11;103304.03;;;18.21;34.46
84904;BME280;75168;52.096;5.214;2024-01-11T07:37:38;103301.38;;;18.21;34.53
84904;BME280;75168;52.096;5.214;2024-01-11T07:40:04;103298.75;;;18.21;34.56
84904;BME280;75168;52.096;5.214;2024-01-11T07:42:30;103299.66;;;18.22;34.66
84904;BME280;75168;52.096;5.214;2024-01-11T07:44:55;103293.47;;;18.21;34.41
84904;BME280;75168;52.096;5.214;2024-01-11T07:47:20;103279.38;;;18.21;34.33
84904;BME280;75168;52.096;5.214;2024-01-11T07:49:46;103271.44;;;18.21;34.66
84904;BME280;75168;52.096;5.214;2024-01-11T07:52:11;103267.91;;;18.20;34.72
84904;BME280;75168;52.096;5.214;2024-01-11T07:54:37;103269.69;;;18.21;34.25
84904;BME280;75168;52.096;5.214;2024-01-11T07:57:03;103255.59;;;18.21;34.46
84904;BME280;75168;52.096;5.214;2024-01-11T07:59:35;103252.94;;;18.21;34.72
84904;BME280;75168;52.096;5.214;2024-01-11T08:02:01;103267.00;;;18.20;34.41
84904;BME280;75168;52.096;5.214;2024-01-11T08:04:27;103265.28;;;18.20;34.31
84904;BME280;75168;52.096;5.214;2024-01-11T08:06:52;103260.88;;;18.21;34.59
84904;BME280;75168;52.096;5.214;2024-01-11T08:09:18;103259.13;;;18.21;34.37
84904;BME280;75168;52.096;5.214;2024-01-11T08:11:43;103262.66;;;18.22;34.54
84904;BME280;75168;52.096;5.214;2024-01-11T08:14:09;103267.03;;;18.21;34.35
84904;BME280;75168;52.096;5.214;2024-01-11T08:16:34;103274.13;;;18.22;34.44
84904;BME280;75168;52.096;5.214;2024-01-11T08:19:00;103258.25;;;18.21;34.35
84904;BME280;75168;52.096;5.214;2024-01-11T08:21:26;103269.69;;;18.21;34.59
84904;BME280;75168;52.096;5.214;2024-01-11T08:23:51;103263.56;;;18.22;34.58
84904;BME280;75168;52.096;5.214;2024-01-11T08:26:17;103262.66;;;18.22;34.68
84904;BME280;75168;52.096;5.214;2024-01-11T08:28:44;103256.47;;;18.21;34.45
84904;BME280;75168;52.096;5.214;2024-01-11T08:31:09;103255.63;;;18.22;34.25
84904;BME280;75168;52.096;5.214;2024-01-11T08:33:35;103260.03;;;18.22;34.47
84904;BME280;75168;52.096;5.214;2024-01-11T08:36:03;103278.53;;;18.22;34.40
84904;BME280;75168;52.096;5.214;2024-01-11T08:38:29;103288.22;;;18.23;34.50
84904;BME280;75168;52.096;5.214;2024-01-11T08:40:55;103290.81;;;18.21;34.58
84904;BME280;75168;52.096;5.214;2024-01-11T08:43:20;103282.03;;;18.22;34.31
84904;BME280;75168;52.096;5.214;2024-01-11T08:45:46;103281.16;;;18.22;34.55
84904;BME280;75168;52.096;5.214;2024-01-11T08:48:14;103281.16;;;18.23;34.61
84904;BME280;75168;52.096;5.214;2024-01-11T08:50:40;103275.88;;;18.23;34.51
84904;BME280;75168;52.096;5.214;2024-01-11T08:53:06;103271.50;;;18.24;34.52
84904;BME280;75168;52.096;5.214;2024-01-11T08:55:31;103275.88;;;18.23;34.36
84904;BME280;75168;52.096;5.214;2024-01-11T08:57:58;103276.78;;;18.24;34.36
84904;BME280;75168;52.096;5.214;2024-01-11T09:00:23;103288.25;;;18.24;34.44
84904;BME280;75168;52.096;5.214;2024-01-11T09:02:48;103282.94;;;18.23;34.41
84904;BME280;75168;52.096;5.214;2024-01-11T09:05:14;103297.94;;;18.24;34.30
84904;BME280;75168;52.096;5.214;2024-01-11T09:07:40;103299.66;;;18.23;34.33
84904;BME280;75168;52.096;5.214;2024-01-11T09:10:06;103303.22;;;18.24;34.46
84904;BME280;75168;52.096;5.214;2024-01-11T09:12:34;103308.50;;;18.24;34.36
84904;BME280;75168;52.096;5.214;2024-01-11T09:14:59;103313.78;;;18.24;34.20
84904;BME280;75168;52.096;5.214;2024-01-11T09:17:24;103316.41;;;18.24;34.52
84904;BME280;75168;52.096;5.214;2024-01-11T09:19:51;103315.53;;;18.25;34.20
84904;BME280;75168;52.096;5.214;2024-01-11T09:22:16;103327.03;;;18.25;34.12
84904;BME280;75168;52.096;5.214;2024-01-11T09:24:41;103330.50;;;18.24;34.51
84904;BME280;75168;52.096;5.214;2024-01-11T09:27:07;103334.91;;;18.24;34.26
84904;BME280;75168;52.096;5.214;2024-01-11T09:29:32;103334.03;;;18.25;34.42
84904;BME280;75168;52.096;5.214;2024-01-11T09:31:59;103341.09;;;18.24;34.21
84904;BME280;75168;52.096;5.214;2024-01-11T09:34:25;103347.25;;;18.25;34.31
84904;BME280;75168;52.096;5.214;2024-01-11T09:36:50;103348.16;;;18.25;34.38
84904;BME280;75168;52.096;5.214;2024-01-11T09:39:15;103348.16;;;18.25;34.08
84904;BME280;75168;52.096;5.214;2024-01-11T09:41:47;103342.88;;;18.25;34.44
84904;BME280;75168;52.096;5.214;2024-01-11T09:44:16;103338.47;;;18.26;34.16
84904;BME280;75168;52.096;5.214;2024-01-11T09:46:43;103342.00;;;18.26;34.13
84904;BME280;75168;52.096;5.214;2024-01-11T09:49:10;103342.91;;;18.27;34.38
84904;BME280;75168;52.096;5.214;2024-01-11T09:51:37;103336.75;;;18.28;34.28
84904;BME280;75168;52.096;5.214;2024-01-11T09:54:03;103334.09;;;18.28;34.42
84904;BME280;75168;52.096;5.214;2024-01-11T09:56:29;103342.06;;;18.30;34.10
84904;BME280;75168;52.096;5.214;2024-01-11T09:58:55;103342.06;;;18.30;34.11
84904;BME280;75168;52.096;5.214;2024-01-11T10:01:22;103346.50;;;18.31;34.43
84904;BME280;75168;52.096;5.214;2024-01-11T10:03:48;103350.88;;;18.30;34.13
84904;BME280;75168;52.096;5.214;2024-01-11T10:06:14;103357.06;;;18.31;34.16
84904;BME280;75168;52.096;5.214;2024-01-11T10:08:41;103352.63;;;18.30;34.17
84904;BME280;75168;52.096;5.214;2024-01-11T10:11:06;103372.00;;;18.30;34.16
84904;BME280;75168;52.096;5.214;2024-01-11T10:13:32;103376.41;;;18.30;34.36
84904;BME280;75168;52.096;5.214;2024-01-11T10:16:05;103372.94;;;18.31;34.16
84904;BME280;75168;52.096;5.214;2024-01-11T10:18:31;103373.81;;;18.31;34.43
84904;BME280;75168;52.096;5.214;2024-01-11T10:20:57;103375.56;;;18.31;34.25
84904;BME280;75168;52.096;5.214;2024-01-11T10:23:22;103381.72;;;18.31;34.21
84904;BME280;75168;52.096;5.214;2024-01-11T10:25:49;103377.34;;;18.32;34.34
84904;BME280;75168;52.096;5.214;2024-01-11T10:28:14;103383.50;;;18.31;34.22
84904;BME280;75168;52.096;5.214;2024-01-11T10:30:40;103381.72;;;18.31;34.28
84904;BME280;75168;52.096;5.214;2024-01-11T10:33:07;103381.72;;;18.31;34.02
84904;BME280;75168;52.096;5.214;2024-01-11T10:35:33;103376.44;;;18.31;34.27
84904;BME280;75168;52.096;5.214;2024-01-11T10:38:09;103376.44;;;18.31;34.26
84904;BME280;75168;52.096;5.214;2024-01-11T10:40:35;103378.22;;;18.32;34.09
84904;BME280;75168;52.096;5.214;2024-01-11T10:43:02;103365.00;;;18.32;34.31
84904;BME280;75168;52.096;5.214;2024-01-11T10:45:28;103364.13;;;18.32;34.20
84904;BME280;75168;52.096;5.214;2024-01-11T10:47:56;103368.56;;;18.33;33.90
84904;BME280;75168;52.096;5.214;2024-01-11T10:50:29;103365.00;;;18.32;34.27
84904;BME280;75168;52.096;5.214;2024-01-11T10:55:33;103357.06;;;18.32;34.15
84904;BME280;75168;52.096;5.214;2024-01-11T10:58:00;103361.47;;;18.32;34.03
84904;BME280;75168;52.096;5.214;2024-01-11T11:00:27;103375.56;;;18.32;34.07
84904;BME280;75168;52.096;5.214;2024-01-11T11:02:54;103379.97;;;18.32;34.21
84904;BME280;75168;52.096;5.214;2024-01-11T11:05:21;103386.13;;;18.32;34.00
84904;BME280;75168;52.096;5.214;2024-01-11T11:07:49;103375.56;;;18.32;34.06
84904;BME280;75168;52.096;5.214;2024-01-11T11:10:17;103372.94;;;18.32;34.40
84904;BME280;75168;52.096;5.214;2024-01-11T11:12:45;103371.16;;;18.31;34.17
84904;BME280;75168;52.096;5.214;2024-01-11T11:15:11;103373.81;;;18.31;34.24
84904;BME280;75168;52.096;5.214;2024-01-11T11:17:38;103369.41;;;18.32;34.16
84904;BME280;75168;52.096;5.214;2024-01-11T11:20:07;103363.28;;;18.33;34.07
84904;BME280;75168;52.096;5.214;2024-01-11T11:22:41;103357.06;;;18.31;34.40
84904;BME280;75168;52.096;5.214;2024-01-11T11:25:23;103365.88;;;18.31;33.93
84904;BME280;75168;52.096;5.214;2024-01-11T11:27:50;103364.09;;;18.30;34.03
84904;BME280;75168;52.096;5.214;2024-01-11T11:30:18;103379.09;;;18.31;34.03
84904;BME280;75168;52.096;5.214;2024-01-11T11:32:45;103380.84;;;18.31;34.09
84904;BME280;75168;52.096;5.214;2024-01-11T11:35:11;103381.72;;;18.31;34.12
84904;BME280;75168;52.096;5.214;2024-01-11T11:37:37;103389.66;;;18.31;34.28
84904;BME280;75168;52.096;5.214;2024-01-11T11:40:13;103394.06;;;18.32;33.82
84904;BME280;75168;52.096;5.214;2024-01-11T11:42:39;103404.63;;;18.31;34.00
84904;BME280;75168;52.096;5.214;2024-01-11T11:45:06;103392.31;;;18.31;34.15
84904;BME280;75168;52.096;5.214;2024-01-11T11:47:35;103391.41;;;18.32;33.85
84904;BME280;75168;52.096;5.214;2024-01-11T11:50:10;103393.19;;;18.32;34.13
84904;BME280;75168;52.096;5.214;2024-01-11T11:52:39;103392.31;;;18.31;33.95
84904;BME280;75168;52.096;5.214;2024-01-11T11:55:07;103383.50;;;18.31;34.08
84904;BME280;75168;52.096;5.214;2024-01-11T11:57:34;103375.56;;;18.31;34.28
84904;BME280;75168;52.096;5.214;2024-01-11T12:00:00;103384.38;;;18.31;34.24
84904;BME280;75168;52.096;5.214;2024-01-11T12:02:36;103372.94;;;18.31;34.04
84904;BME280;75168;52.096;5.214;2024-01-11T12:05:02;103379.09;;;18.31;33.76
84904;BME280;75168;52.096;5.214;2024-01-11T12:07:29;103376.44;;;18.31;33.95
84904;BME280;75168;52.096;5.214;2024-01-11T12:09:55;103371.16;;;18.31;33.95
84904;BME280;75168;52.096;5.214;2024-01-11T12:12:20;103365.00;;;18.32;34.04
84904;BME280;75168;52.096;5.214;2024-01-11T12:14:49;103356.19;;;18.32;34.22
84904;BME280;75168;52.096;5.214;2024-01-11T12:17:16;103362.34;;;18.31;34.28
84904;BME280;75168;52.096;5.214;2024-01-11T12:19:41;103365.88;;;18.31;34.26
84904;BME280;75168;52.096;5.214;2024-01-11T12:22:07;103358.84;;;18.32;33.95
84904;BME280;75168;52.096;5.214;2024-01-11T12:24:32;103356.16;;;18.30;34.14
84904;BME280;75168;52.096;5.214;2024-01-11T12:27:01;103352.66;;;18.31;34.28
84904;BME280;75168;52.096;5.214;2024-01-11T12:29:30;103359.72;;;18.32;34.13
84904;BME280;75168;52.096;5.214;2024-01-11T12:31:57;103364.13;;;18.32;34.17
84904;BME280;75168;52.096;5.214;2024-01-11T12:34:26;103354.31;;;18.26;33.99
84904;BME280;75168;52.096;5.214;2024-01-11T12:36:52;103355.25;;;18.28;34.05
84904;BME280;75168;52.096;5.214;2024-01-11T12:39:19;103357.06;;;18.31;34.15
84904;BME280;75168;52.096;5.214;2024-01-11T12:41:48;103355.31;;;18.31;33.94
84904;BME280;75168;52.096;5.214;2024-01-11T12:44:14;103359.75;;;18.34;33.74
84904;BME280;75168;52.096;5.214;2024-01-11T12:46:39;103358.88;;;18.33;33.83